Time;durP1;ratioP1;P1;durP2;ratioP2;P2;SDS_P1;SDS_P2;PMS_P1;PMS_P2;Temp;Humidity;BMP_temperature;BMP_pressure;BME280_temperature;BME280_humidity;BME280_pressure;Samples;Min_cycle;Max_cycle;Signal;HPM_P1;HPM_P2
2023/09/08 00:01:35;;;;;;;10.05;7.15;;;;;;;21.98;59.86;101576.16;5072386;28;20040;-63
2023/09/08 00:04:01;;;;;;;8.00;7.20;;;;;;;22.00;59.81;101574.69;5065015;28;20083;-63
2023/09/08 00:06:26;;;;;;;9.30;7.20;;;;;;;21.95;59.96;101571.13;5054175;28;20562;-63
2023/09/08 00:08:51;;;;;;;9.15;7.15;;;;;;;21.95;60.08;101568.28;5057740;28;20029;-63
2023/09/08 00:11:17;;;;;;;9.18;7.03;;;;;;;21.86;60.32;101573.00;5062997;28;20040;-63
2023/09/08 00:13:42;;;;;;;12.32;7.95;;;;;;;21.87;60.41;101569.03;5072732;28;20032;-63
2023/09/08 00:16:09;;;;;;;9.68;7.45;;;;;;;21.86;60.21;101576.66;5059330;28;20029;-63
2023/09/08 00:18:35;;;;;;;8.45;7.45;;;;;;;21.82;60.36;101578.44;5053572;28;20068;-63
2023/09/08 00:21:00;;;;;;;8.45;7.63;;;;;;;21.80;60.39;101578.75;5054032;28;20041;-62
2023/09/08 00:23:28;;;;;;;10.27;7.70;;;;;;;21.78;60.30;101583.03;5059869;28;20357;-63
2023/09/08 00:25:53;;;;;;;8.68;7.50;;;;;;;21.70;60.26;101576.13;5053403;28;20053;-62
2023/09/08 00:28:18;;;;;;;9.52;8.30;;;;;;;21.62;60.34;101579.66;5063415;28;20106;-62
2023/09/08 00:30:44;;;;;;;10.30;8.25;;;;;;;21.61;60.34;101577.97;5052727;28;20024;-62
2023/09/08 00:33:11;;;;;;;8.68;6.90;;;;;;;21.52;60.70;101577.84;5054114;28;20025;-62
2023/09/08 00:35:36;;;;;;;9.10;7.78;;;;;;;21.51;60.85;101576.16;5053717;28;20025;-62
2023/09/08 00:38:02;;;;;;;11.00;7.80;;;;;;;21.52;61.00;101580.66;5083642;28;20042;-62
2023/09/08 00:40:28;;;;;;;11.30;7.93;;;;;;;21.51;60.98;101579.00;5093590;28;20028;-62
2023/09/08 00:42:53;;;;;;;10.43;7.82;;;;;;;21.53;60.93;101581.50;5059745;28;20032;-62
2023/09/08 00:45:18;;;;;;;12.05;7.80;;;;;;;21.48;61.01;101581.59;5055767;28;20043;-62
2023/09/08 00:47:43;;;;;;;11.10;7.80;;;;;;;21.48;61.25;101573.97;5058703;28;20079;-62
2023/09/08 00:50:09;;;;;;;9.25;8.20;;;;;;;21.41;61.06;101573.50;5053105;28;20392;-62
2023/09/08 00:52:34;;;;;;;10.18;8.32;;;;;;;21.43;60.94;101576.88;5071687;28;20032;-62
2023/09/08 00:55:00;;;;;;;9.18;7.85;;;;;;;21.33;61.15;101575.06;5088449;28;20040;-62
2023/09/08 00:57:25;;;;;;;10.57;8.32;;;;;;;21.33;61.12;101575.06;5080045;28;20040;-62
2023/09/08 00:59:51;;;;;;;9.50;8.13;;;;;;;21.35;61.20;101571.94;5072258;28;20025;-62
2023/09/08 01:02:16;;;;;;;11.18;8.57;;;;;;;21.28;61.31;101575.13;5062051;28;20144;-62
2023/09/08 01:04:42;;;;;;;10.00;8.25;;;;;;;21.24;61.32;101578.88;5053677;28;20550;-62
2023/09/08 01:07:09;;;;;;;8.93;7.63;;;;;;;21.20;61.60;101572.16;5084359;28;20036;-62
2023/09/08 01:09:35;;;;;;;10.07;8.20;;;;;;;21.20;61.54;101572.16;5061697;28;20037;-62
2023/09/08 01:12:05;;;;;;;9.95;8.27;;;;;;;21.12;61.70;101576.53;5057229;28;20028;-62
2023/09/08 01:14:31;;;;;;;9.35;8.35;;;;;;;21.18;61.49;101574.44;5068627;28;20032;-63
2023/09/08 01:16:56;;;;;;;9.38;8.38;;;;;;;21.15;61.51;101573.09;5071145;28;20035;-62
2023/09/08 01:19:22;;;;;;;10.35;9.25;;;;;;;21.12;61.41;101575.69;5062961;28;20067;-62
2023/09/08 01:22:25;;;;;;;10.38;8.65;;;;;;;21.15;61.30;101580.72;5064755;28;20056;-62
2023/09/08 01:25:12;;;;;;;10.27;8.52;;;;;;;21.14;61.32;101582.69;5041562;28;20090;-63
2023/09/08 01:27:40;;;;;;;11.73;9.02;;;;;;;21.02;61.69;101579.50;5061392;28;20063;-63
2023/09/08 01:30:07;;;;;;;11.65;8.75;;;;;;;20.96;61.71;101581.56;5052456;28;20120;-62
2023/09/08 01:32:33;;;;;;;9.90;8.65;;;;;;;20.93;61.81;101581.34;5063626;28;20408;-63
2023/09/08 01:35:00;;;;;;;10.55;8.88;;;;;;;20.88;61.96;101587.06;5069956;28;20466;-62
2023/09/08 01:37:25;;;;;;;10.27;8.75;;;;;;;20.81;62.24;101579.81;5072241;28;20373;-62
2023/09/08 01:39:51;;;;;;;9.60;8.60;;;;;;;20.81;61.97;101578.97;5056605;28;20040;-62
2023/09/08 01:42:16;;;;;;;9.63;8.73;;;;;;;20.79;61.99;101579.28;5055409;28;20075;-62
2023/09/08 01:44:42;;;;;;;10.40;8.75;;;;;;;20.81;61.97;101579.81;5068507;28;20396;-62
2023/09/08 01:47:07;;;;;;;11.63;9.77;;;;;;;20.73;62.25;101583.31;5068672;28;20549;-62
2023/09/08 01:49:32;;;;;;;10.18;9.18;;;;;;;20.65;62.56;101581.16;5074513;28;20040;-62
2023/09/08 01:51:58;;;;;;;10.20;9.20;;;;;;;20.71;62.66;101581.94;5060310;28;20032;-62
2023/09/08 01:54:23;;;;;;;10.20;9.18;;;;;;;20.74;62.35;101576.53;5069732;28;20036;-63
2023/09/08 01:56:48;;;;;;;11.07;9.10;;;;;;;20.66;62.49;101576.38;5071865;28;20036;-62
2023/09/08 01:59:13;;;;;;;11.27;9.35;;;;;;;20.71;62.27;101565.88;5071526;28;20029;-62
2023/09/08 02:01:39;;;;;;;11.98;8.95;;;;;;;20.68;62.54;101569.28;5050357;28;20132;-62
2023/09/08 02:04:05;;;;;;;10.82;9.55;;;;;;;20.66;62.65;101577.19;5062986;28;20107;-63
2023/09/08 02:06:30;;;;;;;10.82;9.32;;;;;;;20.69;62.58;101568.13;5071291;28;20484;-62
2023/09/08 02:08:56;;;;;;;12.55;9.93;;;;;;;20.64;62.57;101575.84;5070930;28;20375;-63
2023/09/08 02:11:21;;;;;;;12.93;9.98;;;;;;;20.63;62.60;101563.69;5061399;28;20382;-62
2023/09/08 02:13:46;;;;;;;15.27;10.05;;;;;;;20.56;62.58;101577.38;5068172;28;20035;-62
2023/09/08 02:16:15;;;;;;;10.77;9.77;;;;;;;20.51;62.81;101561.31;5070751;28;20442;-63
2023/09/08 02:18:42;;;;;;;13.02;10.35;;;;;;;20.43;62.83;101569.59;5070416;28;20786;-62
2023/09/08 02:21:07;;;;;;;12.85;10.55;;;;;;;20.42;62.75;101567.91;5057999;28;20029;-62
2023/09/08 02:23:32;;;;;;;12.27;10.32;;;;;;;20.41;62.82;101566.25;5050629;28;20039;-62
2023/09/08 02:25:57;;;;;;;14.98;10.50;;;;;;;20.38;62.91;101567.69;5069429;28;20033;-62
2023/09/08 02:28:23;;;;;;;12.90;10.48;;;;;;;20.39;63.03;101563.72;5051735;28;20518;-62
2023/09/08 02:30:48;;;;;;;12.07;10.30;;;;;;;20.39;62.94;101563.72;5065279;28;20360;-62
2023/09/08 02:33:13;;;;;;;13.65;10.30;;;;;;;20.33;63.01;101557.31;5051236;28;20025;-62
2023/09/08 02:35:39;;;;;;;14.18;10.50;;;;;;;20.30;63.01;101566.38;5051194;28;20032;-62
2023/09/08 02:38:04;;;;;;;13.20;10.27;;;;;;;20.25;63.17;101555.16;5053007;28;20094;-62
2023/09/08 02:40:30;;;;;;;13.02;9.52;;;;;;;20.24;63.09;101556.31;5051220;28;20457;-62
2023/09/08 02:42:55;;;;;;;14.35;10.43;;;;;;;20.17;63.06;101557.81;5059448;28;20044;-62
2023/09/08 02:45:20;;;;;;;11.88;10.40;;;;;;;20.19;63.02;101555.53;5050710;28;20511;-62
2023/09/08 02:47:46;;;;;;;11.27;9.82;;;;;;;20.15;63.20;101560.91;5050923;28;20156;-62
2023/09/08 02:50:11;;;;;;;10.93;9.82;;;;;;;20.20;63.01;101560.00;5051179;28;20100;-62
2023/09/08 02:52:36;;;;;;;13.45;10.75;;;;;;;20.15;63.19;101563.75;5076229;28;20040;-62
2023/09/08 02:55:02;;;;;;;11.40;10.20;;;;;;;20.18;63.17;101565.97;5062794;28;20112;-62
2023/09/08 02:57:27;;;;;;;11.48;10.07;;;;;;;20.10;63.48;101561.00;5062596;28;20019;-62
2023/09/08 02:59:56;;;;;;;13.70;10.60;;;;;;;20.10;63.34;101561.00;5050863;28;20166;-62
2023/09/08 03:02:21;;;;;;;14.80;10.23;;;;;;;20.02;63.48;101565.31;5069415;28;20526;-62
2023/09/08 03:04:46;;;;;;;13.77;10.35;;;;;;;20.01;63.68;101562.81;5069359;28;20028;-62
2023/09/08 03:07:11;;;;;;;17.90;11.02;;;;;;;19.99;63.81;101559.44;5080330;28;20058;-62
2023/09/08 03:09:37;;;;;;;15.20;10.85;;;;;;;19.99;63.66;101560.25;5050831;28;20032;-63
2023/09/08 03:12:03;;;;;;;16.90;11.18;;;;;;;19.98;63.68;101566.22;5052555;28;20033;-62
2023/09/08 03:14:28;;;;;;;15.35;11.15;;;;;;;19.95;63.76;101558.34;5050865;28;20021;-62
2023/09/08 03:16:54;;;;;;;14.35;11.15;;;;;;;19.96;63.80;101555.22;5059693;28;20492;-62
2023/09/08 03:19:20;;;;;;;12.02;10.93;;;;;;;19.90;64.01;101562.06;5051679;28;20045;-62
2023/09/08 03:21:45;;;;;;;15.50;10.77;;;;;;;19.85;63.78;101560.16;5084679;28;20027;-62
2023/09/08 03:24:11;;;;;;;16.02;11.20;;;;;;;19.84;63.89;101569.72;5091497;28;20196;-63
2023/09/08 03:26:36;;;;;;;17.55;11.15;;;;;;;19.86;63.82;101561.81;5062579;28;20485;-62
2023/09/08 03:29:01;;;;;;;17.45;11.35;;;;;;;19.81;63.87;101564.72;5073638;28;20028;-62
2023/09/08 03:31:27;;;;;;;14.05;11.18;;;;;;;19.78;64.10;101558.84;5072706;28;20437;-62
2023/09/08 03:33:52;;;;;;;13.88;10.70;;;;;;;19.78;64.10;101554.03;5055021;28;20029;-62
2023/09/08 03:36:18;;;;;;;18.27;10.68;;;;;;;19.76;64.08;101556.28;5072324;28;20420;-63
2023/09/08 03:38:43;;;;;;;16.15;10.60;;;;;;;19.77;64.09;101549.53;5067799;28;20039;-62
2023/09/08 03:41:08;;;;;;;14.95;11.38;;;;;;;19.72;64.16;101560.00;5074005;28;20050;-62
2023/09/08 03:43:34;;;;;;;19.05;11.68;;;;;;;19.69;64.25;101552.16;5064061;28;20028;-62
2023/09/08 03:45:59;;;;;;;17.73;11.35;;;;;;;19.67;64.38;101557.25;5055852;28;20480;-63
2023/09/08 03:48:24;;;;;;;13.57;11.55;;;;;;;19.66;64.21;101552.75;5054307;28;20033;-62
2023/09/08 03:50:49;;;;;;;21.95;12.13;;;;;;;19.59;64.62;101547.44;5059836;28;20404;-62
2023/09/08 03:53:15;;;;;;;18.05;12.18;;;;;;;19.61;64.50;101548.00;5074128;28;20056;-63
2023/09/08 03:55:40;;;;;;;12.70;11.10;;;;;;;19.56;64.74;101539.56;5071806;28;20131;-62
2023/09/08 03:58:05;;;;;;;15.73;11.82;;;;;;;19.56;64.31;101548.03;5073183;28;20085;-62
2023/09/08 04:00:31;;;;;;;16.58;11.23;;;;;;;19.56;64.50;101543.22;5060617;28;20028;-62
2023/09/08 04:02:56;;;;;;;13.88;11.60;;;;;;;19.58;64.36;101543.78;5054765;28;20033;-62
2023/09/08 04:05:22;;;;;;;14.93;11.20;;;;;;;19.54;64.64;101545.53;5054487;28;20744;-62
2023/09/08 04:07:47;;;;;;;14.43;12.18;;;;;;;19.54;64.62;101547.50;5061401;28;20801;-62
2023/09/08 04:10:13;;;;;;;12.85;11.15;;;;;;;19.50;64.59;101543.59;5070215;28;20417;-62
2023/09/08 04:12:41;;;;;;;16.92;11.73;;;;;;;19.45;64.87;101546.44;5058539;28;20086;-62
2023/09/08 04:15:07;;;;;;;14.48;11.07;;;;;;;19.45;64.67;101549.25;5067502;28;20362;-62
2023/09/08 04:17:33;;;;;;;16.75;12.00;;;;;;;19.43;65.08;101543.94;5065882;28;20112;-62
2023/09/08 04:19:58;;;;;;;12.57;11.30;;;;;;;19.35;65.12;101539.78;5054124;28;20116;-62
2023/09/08 04:22:24;;;;;;;12.10;10.43;;;;;;;19.40;65.20;101538.06;5053011;28;20388;-62
2023/09/08 04:24:49;;;;;;;13.38;10.57;;;;;;;19.44;65.01;101536.31;5064873;28;20377;-62
2023/09/08 04:27:15;;;;;;;11.25;10.05;;;;;;;19.39;65.11;101534.41;5071665;28;20499;-62
2023/09/08 04:29:41;;;;;;;13.30;10.90;;;;;;;19.36;65.33;101532.16;5056447;28;20036;-62
2023/09/08 04:32:08;;;;;;;11.68;10.57;;;;;;;19.35;65.27;101533.31;5062602;28;20032;-62
2023/09/08 04:34:41;;;;;;;12.25;9.98;;;;;;;19.36;65.25;101535.81;5067905;28;20111;-62
2023/09/08 04:37:07;;;;;;;12.60;10.82;;;;;;;19.29;65.67;101531.66;5059682;28;20056;-62
2023/09/08 04:39:34;;;;;;;11.75;10.48;;;;;;;19.30;65.58;101524.94;5056468;28;20030;-62
2023/09/08 04:41:59;;;;;;;12.45;10.45;;;;;;;19.26;65.69;101527.50;5076716;28;20029;-62
2023/09/08 04:44:25;;;;;;;13.60;10.77;;;;;;;19.30;65.78;101536.19;5079801;28;20063;-62
2023/09/08 04:46:54;;;;;;;10.93;9.75;;;;;;;19.29;65.79;101529.69;5052855;28;20080;-62
2023/09/08 04:49:19;;;;;;;12.10;10.68;;;;;;;19.27;66.06;101531.97;5062831;28;20064;-62
2023/09/08 04:51:45;;;;;;;12.32;10.63;;;;;;;19.27;65.93;101531.97;5067480;28;20032;-62
2023/09/08 04:54:10;;;;;;;12.43;10.73;;;;;;;19.32;65.79;101537.56;5071815;28;20025;-62
2023/09/08 04:56:36;;;;;;;14.90;10.48;;;;;;;19.34;65.86;101542.91;5070998;28;20044;-62
2023/09/08 04:59:02;;;;;;;15.23;10.98;;;;;;;19.31;66.17;101532.22;5072440;28;20078;-62
2023/09/08 05:01:29;;;;;;;13.15;10.55;;;;;;;19.31;66.29;101535.03;5070331;28;20035;-62
2023/09/08 05:03:55;;;;;;;12.88;10.73;;;;;;;19.30;66.13;101545.47;5052238;28;20033;-63
2023/09/08 05:06:20;;;;;;;11.80;10.32;;;;;;;19.30;66.41;101533.38;5053062;28;20029;-62
2023/09/08 05:08:45;;;;;;;12.40;10.85;;;;;;;19.34;66.31;101545.72;5053007;28;20488;-63
2023/09/08 05:11:11;;;;;;;12.65;10.82;;;;;;;19.31;66.47;101546.31;5071878;28;20029;-63
2023/09/08 05:13:36;;;;;;;12.05;10.82;;;;;;;19.31;66.74;101541.50;5069895;28;20028;-62
2023/09/08 05:16:10;;;;;;;12.15;10.63;;;;;;;19.30;66.82;101542.66;5067950;28;20027;-63
2023/09/08 05:18:36;;;;;;;13.15;11.05;;;;;;;19.26;67.04;101544.38;5063150;28;20052;-63
2023/09/08 05:21:02;;;;;;;12.07;10.88;;;;;;;19.27;66.93;101545.22;5053431;28;20532;-62
2023/09/08 05:23:27;;;;;;;14.93;10.85;;;;;;;19.30;67.12;101553.06;5053420;28;20103;-62
2023/09/08 05:25:53;;;;;;;11.88;10.68;;;;;;;19.30;67.05;101542.66;5061181;28;20035;-62
2023/09/08 05:28:18;;;;;;;13.25;9.68;;;;;;;19.44;67.04;101551.22;5061753;28;20033;-62
2023/09/08 05:30:44;;;;;;;9.55;7.10;;;;;;;19.63;68.63;101544.91;5059665;28;20430;-63
2023/09/08 05:33:09;;;;;;;11.88;9.50;;;;;;;19.65;67.33;101554.75;5062964;28;20111;-63
2023/09/08 05:35:34;;;;;;;11.52;9.38;;;;;;;19.74;67.09;101550.13;5056116;28;20387;-63
2023/09/08 05:37:59;;;;;;;11.55;9.95;;;;;;;19.77;66.11;101545.88;5062984;28;20031;-63
2023/09/08 05:40:26;;;;;;;11.27;8.18;;;;;;;19.84;67.34;101555.63;5071045;28;20068;-62
2023/09/08 05:42:51;;;;;;;11.05;9.27;;;;;;;19.86;66.48;101553.38;5064354;28;20766;-63
2023/09/08 05:45:17;;;;;;;10.35;9.25;;;;;;;19.93;66.52;101555.00;5057086;28;20038;-63
2023/09/08 05:47:42;;;;;;;13.73;10.20;;;;;;;19.95;66.05;101556.38;5071210;28;20660;-63
2023/09/08 05:50:08;;;;;;;12.18;10.93;;;;;;;19.88;66.10;101557.88;5070634;28;20082;-62
2023/09/08 05:52:33;;;;;;;10.50;9.07;;;;;;;19.96;66.18;101557.22;5070628;28;20115;-63
2023/09/08 05:54:58;;;;;;;10.07;9.05;;;;;;;20.03;66.69;101566.16;5068750;28;20028;-63
2023/09/08 05:57:24;;;;;;;10.82;9.48;;;;;;;20.07;66.39;101565.25;5067006;28;20032;-62
2023/09/08 05:59:49;;;;;;;14.57;10.73;;;;;;;20.01;65.78;101565.63;5071243;28;20753;-62
2023/09/08 06:02:15;;;;;;;11.05;9.85;;;;;;;20.07;66.00;101556.78;5052650;28;20107;-62
2023/09/08 06:04:40;;;;;;;14.77;9.48;;;;;;;20.18;66.17;101570.75;5062221;28;20062;-62
2023/09/08 06:07:05;;;;;;;12.07;9.40;;;;;;;20.25;66.79;101555.16;5090386;28;20032;-62
2023/09/08 06:09:32;;;;;;;11.10;9.93;;;;;;;20.28;66.07;101567.84;5071438;28;20025;-63
2023/09/08 06:11:57;;;;;;;11.10;9.35;;;;;;;20.35;66.29;101560.66;5070971;28;20040;-64
2023/09/08 06:14:22;;;;;;;13.75;11.25;;;;;;;20.35;65.68;101562.66;5059072;28;20033;-63
2023/09/08 06:16:48;;;;;;;11.77;9.65;;;;;;;20.43;65.93;101566.78;5048504;28;20029;-62
2023/09/08 06:19:13;;;;;;;13.52;10.25;;;;;;;20.46;65.44;101575.47;5065186;28;20084;-62
2023/09/08 06:21:38;;;;;;;11.80;10.02;;;;;;;20.51;65.21;101571.78;5059322;28;20111;-62
2023/09/08 06:24:04;;;;;;;14.50;10.63;;;;;;;20.58;65.31;101569.41;5068185;28;20046;-62
2023/09/08 06:26:29;;;;;;;11.55;10.35;;;;;;;20.61;64.26;101574.47;5074617;28;20074;-62
2023/09/08 06:28:55;;;;;;;11.82;8.68;;;;;;;20.65;65.18;101575.53;5073139;28;20024;-62
2023/09/08 06:31:20;;;;;;;12.25;9.35;;;;;;;20.69;64.75;101581.41;5068228;28;20159;-62
2023/09/08 06:33:45;;;;;;;13.93;9.38;;;;;;;20.78;64.91;101582.41;5064252;28;20032;-62
2023/09/08 06:36:11;;;;;;;11.63;8.95;;;;;;;20.83;64.85;101580.34;5060826;28;20432;-62
2023/09/08 06:38:36;;;;;;;10.95;8.98;;;;;;;20.89;64.56;101574.63;5060981;28;20112;-61
2023/09/08 06:41:08;;;;;;;12.05;9.23;;;;;;;20.94;64.75;101577.38;5061547;28;20032;-61
2023/09/08 06:43:33;;;;;;;11.95;9.13;;;;;;;20.97;64.34;101574.78;5069165;28;20283;-61
2023/09/08 06:45:59;;;;;;;11.43;8.60;;;;;;;21.02;64.62;101580.31;5068049;28;20032;-62
2023/09/08 06:48:24;;;;;;;14.95;12.05;;;;;;;20.98;63.45;101581.25;5059101;28;20151;-62
2023/09/08 06:50:54;;;;;;;14.32;8.73;;;;;;;21.03;64.39;101581.19;5047789;28;20094;-61
2023/09/08 06:53:19;;;;;;;17.80;10.65;;;;;;;21.01;63.78;101583.47;5067680;28;20031;-61
2023/09/08 06:55:44;;;;;;;13.50;9.55;;;;;;;21.13;64.34;101583.00;5068891;28;20028;-62
2023/09/08 06:58:10;;;;;;;17.55;9.02;;;;;;;21.20;64.27;101589.94;5062785;28;20070;-61
2023/09/08 07:00:35;;;;;;;11.15;8.98;;;;;;;21.24;64.52;101590.16;5053793;28;20118;-62
2023/09/08 07:03:01;;;;;;;10.88;8.45;;;;;;;21.31;64.24;101591.44;5058965;28;20578;-62
2023/09/08 07:05:27;;;;;;;14.20;9.82;;;;;;;21.28;64.28;101586.41;5069356;28;20036;-61
2023/09/08 07:07:52;;;;;;;17.10;9.30;;;;;;;21.36;63.89;101587.72;5051076;28;20029;-62
2023/09/08 07:10:18;;;;;;;16.67;10.18;;;;;;;21.40;63.64;101579.47;5050031;28;20035;-62
2023/09/08 07:12:43;;;;;;;18.17;9.63;;;;;;;21.49;63.92;101584.09;5059629;28;20044;-62
2023/09/08 07:15:09;;;;;;;14.10;9.75;;;;;;;21.55;63.74;101579.22;5056320;28;20118;-62
2023/09/08 07:17:34;;;;;;;11.70;9.60;;;;;;;21.56;62.60;101583.72;5049937;28;20029;-61
2023/09/08 07:19:59;;;;;;;14.65;8.88;;;;;;;21.65;63.24;101587.50;5050163;28;20556;-61
2023/09/08 07:22:25;;;;;;;12.68;8.80;;;;;;;21.72;63.34;101585.09;5050181;28;20040;-62
2023/09/08 07:24:50;;;;;;;10.30;8.45;;;;;;;21.78;62.33;101591.53;5049600;28;20545;-62
2023/09/08 07:27:16;;;;;;;13.02;9.07;;;;;;;21.84;62.48;101589.44;5049810;28;20558;-62
2023/09/08 07:29:41;;;;;;;14.32;10.00;;;;;;;21.79;61.87;101590.38;5054772;28;20503;-63
2023/09/08 07:32:07;;;;;;;12.13;8.23;;;;;;;21.96;62.47;101592.56;5060615;28;20083;-62
2023/09/08 07:34:32;;;;;;;13.07;9.00;;;;;;;21.96;61.56;101593.41;5062001;28;20555;-63
2023/09/08 07:36:59;;;;;;;10.48;8.40;;;;;;;22.14;61.59;101600.19;5062173;28;20016;-62
2023/09/08 07:39:24;;;;;;;10.30;8.55;;;;;;;22.19;61.49;101588.75;5068051;28;20024;-62
2023/09/08 07:41:50;;;;;;;10.48;7.88;;;;;;;22.33;61.44;101596.41;5061711;28;20025;-63
2023/09/08 07:44:15;;;;;;;10.20;8.65;;;;;;;22.37;60.98;101588.97;5058727;28;20040;-62
2023/09/08 07:46:40;;;;;;;10.32;9.23;;;;;;;22.38;60.47;101585.81;5057712;28;20412;-62
2023/09/08 07:49:06;;;;;;;9.60;8.25;;;;;;;22.48;60.68;101579.97;5060767;28;20028;-62
2023/09/08 07:51:31;;;;;;;11.85;7.90;;;;;;;22.59;61.31;101594.69;5052127;28;20087;-62
2023/09/08 07:53:56;;;;;;;10.02;8.30;;;;;;;22.65;62.57;101587.78;5063619;28;20031;-64
2023/09/08 07:56:22;;;;;;;9.88;8.52;;;;;;;22.70;61.89;101586.81;5063434;28;20059;-63
2023/09/08 07:58:47;;;;;;;12.00;8.45;;;;;;;22.72;61.35;101591.03;5060582;28;20029;-62
2023/09/08 08:01:15;;;;;;;9.77;8.23;;;;;;;22.81;60.85;101582.63;5067420;28;20388;-64
2023/09/08 08:03:40;;;;;;;10.38;8.55;;;;;;;22.93;62.00;101576.44;5077847;28;20406;-62
2023/09/08 08:06:05;;;;;;;9.15;8.18;;;;;;;22.93;60.80;101576.44;5082138;28;20078;-63
2023/09/08 08:08:31;;;;;;;9.50;7.80;;;;;;;23.01;60.46;101575.66;5053315;28;20028;-63
2023/09/08 08:10:57;;;;;;;10.73;7.80;;;;;;;23.08;60.72;101570.41;5068101;28;20059;-64
2023/09/08 08:13:22;;;;;;;9.98;7.72;;;;;;;23.13;60.14;101575.09;5086281;28;20024;-63
2023/09/08 08:15:48;;;;;;;11.13;8.02;;;;;;;23.19;60.40;101583.16;5088234;28;20131;-64
2023/09/08 08:18:13;;;;;;;12.57;8.57;;;;;;;23.22;59.82;101578.81;5086097;28;20061;-63
2023/09/08 08:20:39;;;;;;;9.38;7.68;;;;;;;23.36;59.90;101581.63;5093336;28;20024;-63
2023/09/08 08:23:05;;;;;;;8.30;7.50;;;;;;;23.38;60.21;101582.09;5081594;28;20027;-63
2023/09/08 08:25:31;;;;;;;10.63;8.10;;;;;;;23.44;59.29;101590.16;5075210;28;20028;-62
2023/09/08 08:27:58;;;;;;;9.82;8.18;;;;;;;23.52;59.28;101592.22;5071051;28;20135;-63
2023/09/08 08:30:24;;;;;;;8.95;7.82;;;;;;;23.54;58.85;101580.59;5072771;28;20387;-63
2023/09/08 08:32:51;;;;;;;12.15;8.25;;;;;;;23.58;59.04;101587.28;5073009;28;20033;-64
2023/09/08 08:35:16;;;;;;;9.90;8.00;;;;;;;23.68;59.43;101581.34;5071920;28;20055;-63
2023/09/08 08:37:42;;;;;;;10.43;7.63;;;;;;;23.75;59.30;101583.72;5079947;28;20475;-63
2023/09/08 08:40:11;;;;;;;7.88;7.03;;;;;;;23.90;58.95;101588.16;5092925;28;20023;-63
2023/09/08 08:42:36;;;;;;;10.63;7.75;;;;;;;23.86;58.46;101587.13;5059389;28;20419;-62
2023/09/08 08:45:03;;;;;;;10.25;7.38;;;;;;;23.93;58.25;101581.81;5052528;28;20029;-63
2023/09/08 08:47:31;;;;;;;9.55;7.05;;;;;;;24.05;58.72;101584.03;5052953;28;20021;-63
2023/09/08 08:49:58;;;;;;;10.32;6.68;;;;;;;24.06;58.58;101588.56;5052096;28;20124;-63
2023/09/08 08:52:25;;;;;;;8.60;7.13;;;;;;;24.12;58.88;101593.75;5066350;28;20430;-63
2023/09/08 08:54:50;;;;;;;11.65;6.78;;;;;;;24.21;58.33;101588.97;5089340;28;20065;-63
2023/09/08 08:57:16;;;;;;;8.25;6.57;;;;;;;24.20;57.74;101581.59;5083921;28;20028;-62
2023/09/08 08:59:41;;;;;;;7.38;6.68;;;;;;;24.24;58.14;101579.78;5062989;28;20017;-63
2023/09/08 09:02:08;;;;;;;11.00;7.57;;;;;;;24.25;57.27;101580.63;5072400;28;20093;-62
2023/09/08 09:04:36;;;;;;;9.10;6.95;;;;;;;24.29;58.22;101586.47;5071867;28;20033;-62
2023/09/08 09:07:02;;;;;;;8.77;6.88;;;;;;;24.32;57.93;101580.13;5072157;28;20063;-63
2023/09/08 09:09:28;;;;;;;9.23;7.18;;;;;;;24.35;57.78;101580.31;5071060;28;20555;-63
2023/09/08 09:11:54;;;;;;;10.57;6.78;;;;;;;24.48;57.06;101589.91;5091169;28;20060;-62
2023/09/08 09:14:20;;;;;;;7.88;6.75;;;;;;;24.46;57.35;101580.88;5092290;28;20608;-63
2023/09/08 09:16:47;;;;;;;7.93;6.90;;;;;;;24.49;57.12;101583.91;5071304;28;20060;-63
2023/09/08 09:19:31;;;;;;;8.85;6.47;;;;;;;24.59;56.81;101591.25;5071084;28;20433;-63
2023/09/08 09:21:57;;;;;;;9.15;7.07;;;;;;;24.76;57.12;101581.97;5072162;28;20040;-63
2023/09/08 09:24:33;;;;;;;8.00;6.68;;;;;;;24.81;57.52;101583.81;5070827;28;20016;-63
2023/09/08 09:27:00;;;;;;;7.47;6.72;;;;;;;25.03;56.51;101577.13;5074512;28;20115;-63
2023/09/08 09:29:27;;;;;;;6.88;6.22;;;;;;;24.99;55.96;101574.09;5079560;28;20077;-62
2023/09/08 09:31:55;;;;;;;7.65;6.95;;;;;;;25.03;56.94;101582.78;5074383;28;20036;-63
2023/09/08 09:34:21;;;;;;;7.93;6.80;;;;;;;25.09;56.82;101582.34;5065717;28;20038;-63
2023/09/08 09:36:51;;;;;;;10.75;7.50;;;;;;;25.11;56.57;101582.00;5068246;28;20087;-63
2023/09/08 09:39:21;;;;;;;9.32;7.22;;;;;;;25.31;56.09;101574.78;5067849;28;20519;-62
2023/09/08 09:41:48;;;;;;;15.50;7.38;;;;;;;25.34;56.72;101576.97;5059795;28;20689;-63
2023/09/08 09:44:14;;;;;;;9.38;6.97;;;;;;;25.42;56.77;101578.97;5067106;28;20035;-62
2023/09/08 09:46:46;;;;;;;9.60;7.15;;;;;;;25.55;56.40;101588.50;5063387;28;20434;-63
2023/09/08 09:49:13;;;;;;;10.07;6.65;;;;;;;25.58;55.52;101582.13;5074956;28;20035;-62
2023/09/08 09:51:43;;;;;;;8.40;7.32;;;;;;;25.65;55.81;101582.44;5085272;28;20036;-62
2023/09/08 09:54:09;;;;;;;9.00;6.63;;;;;;;25.64;56.03;101581.59;5048143;28;20667;-62
2023/09/08 09:56:36;;;;;;;8.77;6.30;;;;;;;25.75;56.58;101578.41;5049210;28;20033;-63
2023/09/08 09:59:03;;;;;;;8.00;6.80;;;;;;;25.71;55.82;101586.78;5052063;28;20428;-63
2023/09/08 10:01:29;;;;;;;10.68;6.90;;;;;;;25.74;55.97;101579.56;5048379;28;20670;-62
2023/09/08 10:03:55;;;;;;;8.32;7.07;;;;;;;25.71;57.20;101576.25;5052762;28;20033;-62
2023/09/08 10:06:21;;;;;;;9.02;6.93;;;;;;;25.82;56.69;101573.06;5071085;28;20031;-63
2023/09/08 10:08:47;;;;;;;8.45;7.28;;;;;;;25.85;55.76;101575.22;5061113;28;20035;-62
2023/09/08 10:11:19;;;;;;;9.55;6.47;;;;;;;25.91;54.41;101574.72;5088314;28;20039;-63
2023/09/08 10:13:49;;;;;;;10.02;6.68;;;;;;;25.97;55.42;101571.66;5088445;28;20024;-63
2023/09/08 10:16:19;;;;;;;7.05;6.38;;;;;;;26.00;55.31;101574.66;5057465;28;20032;-62
2023/09/08 10:18:47;;;;;;;7.85;6.57;;;;;;;26.07;54.63;101574.16;5061448;28;20075;-63
2023/09/08 10:21:13;;;;;;;7.50;6.53;;;;;;;26.25;54.50;101574.88;5058377;28;20037;-64
2023/09/08 10:23:43;;;;;;;10.27;6.68;;;;;;;26.23;55.42;101571.56;5062429;28;20028;-62
2023/09/08 10:26:11;;;;;;;6.97;6.13;;;;;;;26.38;54.53;101570.97;5058916;28;20090;-64
2023/09/08 10:28:37;;;;;;;6.80;5.88;;;;;;;26.42;53.93;101569.94;5055776;28;20116;-63
2023/09/08 10:31:04;;;;;;;8.52;6.82;;;;;;;26.50;54.53;101573.97;5055872;28;20107;-65
2023/09/08 10:33:31;;;;;;;8.43;6.38;;;;;;;26.55;55.25;101579.44;5054113;28;20058;-65
2023/09/08 10:35:57;;;;;;;8.27;7.20;;;;;;;26.47;53.95;101573.81;5058100;28;20024;-65
2023/09/08 10:38:24;;;;;;;10.18;6.50;;;;;;;26.55;54.83;101564.38;5063358;28;20090;-64
2023/09/08 10:40:50;;;;;;;8.10;7.30;;;;;;;26.40;54.45;101569.44;5059421;28;20032;-64
2023/09/08 10:43:18;;;;;;;10.65;7.22;;;;;;;26.43;54.28;101573.63;5066796;28;20036;-64
2023/09/08 10:45:44;;;;;;;9.85;6.95;;;;;;;26.49;54.44;101562.91;5059690;28;20033;-64
2023/09/08 10:48:10;;;;;;;9.63;6.75;;;;;;;26.52;54.78;101560.19;5063735;28;20048;-64
2023/09/08 10:50:40;;;;;;;8.65;6.90;;;;;;;26.60;54.09;101558.47;5064729;28;20037;-64
2023/09/08 10:53:18;;;;;;;10.35;7.18;;;;;;;26.73;53.79;101560.25;5062197;28;20057;-63
2023/09/08 10:55:48;;;;;;;12.95;6.88;;;;;;;26.64;53.67;101557.44;5064571;28;20056;-63
2023/09/08 10:58:35;;;;;;;10.27;6.93;;;;;;;26.74;54.21;101556.22;5066566;28;20056;-63
2023/09/08 11:01:04;;;;;;;8.60;6.53;;;;;;;26.76;53.55;101564.41;5062021;28;20051;-62
2023/09/08 11:03:38;;;;;;;11.40;6.90;;;;;;;26.88;54.40;101556.78;5058802;28;20071;-63
2023/09/08 11:06:04;;;;;;;8.77;6.97;;;;;;;26.89;53.75;101552.75;5062851;28;20028;-63
2023/09/08 11:08:30;;;;;;;7.32;6.10;;;;;;;26.98;52.36;101555.50;5052670;28;20024;-64
2023/09/08 11:10:56;;;;;;;6.68;6.07;;;;;;;27.01;52.51;101554.00;5054689;28;20021;-63
2023/09/08 11:13:22;;;;;;;6.70;6.03;;;;;;;27.05;52.77;101560.66;5058522;28;20048;-64